Gordon V.sr. — WDB8505 — position and weather

sailwx.info

Track history (hours):
 
Tides and Currents Weather Stations Pressure Air Temp Water Temp Dewpoint Dewpoint Depression Visibility Wind Speed Wind Dir Waves Ship Positions

Gordon V.sr.

Owner: B&G TOWING L.L.C., Lafitte, LA. More information available from US FCC via Universal Licensing System and Coast Guard Vessel Documentation Center.

Last reported at 2015-Aug-04 09:33 UTC. Time now 2015-Aug-04 09:46 UTC.
Position N 29°57' W 090°01'.

MMSI: 365910942.

Date/timePositionNaut miles runAvg speedWind from/ knotsBaromVisibWave heightAir tempDewpointWater temp
2015-Aug-04 09:33N 29°57' W 090°01'0 0.0
2015-Aug-04 08:33N 29°57' W 090°01'0 0.0
2015-Aug-04 07:33N 29°57' W 090°01'0 0.1
2015-Aug-04 06:32N 29°57' W 090°01'0 0.1
2015-Aug-04 05:32N 29°57' W 090°01'0 0.0
2015-Aug-04 04:31N 29°57' W 090°01'0 0.0
2015-Aug-04 03:32N 29°57' W 090°01'2 1.6
2015-Aug-04 02:29N 29°56' W 089°59'2 1.8
2015-Aug-04 01:33N 29°57' W 090°01'0 0.1
2015-Aug-04 00:31N 29°57' W 090°01'0 0.0
2015-Aug-03 07:31N 29°57' W 090°01'0 0.0
2015-Aug-03 06:30N 29°57' W 090°01'0 0.0
2015-Aug-03 05:23N 29°57' W 090°01'0 0.0
2015-Aug-03 04:30N 29°57' W 090°01'0 0.0
2015-Aug-03 03:27N 29°57' W 090°01'0 0.0
2015-Aug-03 02:18N 29°57' W 090°01'0 0.0
2015-Aug-03 01:32N 29°57' W 090°01'0 0.0
2015-Aug-03 00:28N 29°57' W 090°01'0 0.4
2015-Aug-02 23:32N 29°57' W 090°01'0 0.3
2015-Aug-02 22:33N 29°57' W 090°01'0 0.0
2015-Aug-02 21:33N 29°57' W 090°01'0 0.0
2015-Aug-02 20:33N 29°57' W 090°01'0 0.0
2015-Aug-02 19:33N 29°57' W 090°01'1 1.2
2015-Aug-02 18:33N 29°56' W 089°60'0 0.4
2015-Aug-02 17:33N 29°56' W 089°59'0 0.0
2015-Aug-02 16:32N 29°56' W 089°59'0 0.0
2015-Aug-02 15:33N 29°56' W 089°59'0 0.0
2015-Aug-02 14:22N 29°56' W 089°59'0 0.1
2015-Aug-02 13:07N 29°56' W 089°59'1 0.7
2015-Aug-02 11:06N 29°57' W 090°01'0 0.4
2015-Aug-02 10:27N 29°57' W 090°01'0 0.0
2015-Aug-02 09:17N 29°57' W 090°01'0 0.0
2015-Aug-02 08:33N 29°57' W 090°01'0 0.0
2015-Aug-02 07:32N 29°57' W 090°01'0 0.0
2015-Aug-02 06:33N 29°57' W 090°01'0 0.4
2015-Aug-02 05:32N 29°57' W 090°01'2 1.7
2015-Aug-02 04:30N 29°56' W 089°59'1 0.6
2015-Aug-02 03:27N 29°56' W 089°60'0 0.4
2015-Aug-02 02:33N 29°57' W 089°60'1 0.7
2015-Aug-02 01:32N 29°56' W 089°59'0 0.0
2015-Aug-02 00:33N 29°56' W 089°59'1 0.6
2015-Aug-01 23:30N 29°56' W 089°60'0 0.3
2015-Aug-01 22:31N 29°56' W 089°60'0 0.2
2015-Aug-01 21:31N 29°56' W 089°59'0 0.1
2015-Aug-01 20:32N 29°56' W 089°59'0 0.0
2015-Jul-31 21:20N 29°56' W 089°59'0 0.2
2015-Jul-31 20:30N 29°56' W 089°59'0 0.1
2015-Jul-31 19:33N 29°56' W 089°59'0 0.3
2015-Jul-31 18:14N 29°56' W 089°60'0 0.4
2015-Jul-31 17:21N 29°56' W 089°59'0 0.1
2015-Jul-31 16:28N 29°56' W 089°59'0 0.2
2015-Jul-31 15:33N 29°56' W 089°59'2 1.5
2015-Jul-31 14:33N 29°57' W 090°01'0 0.4
2015-Jul-31 13:32N 29°57' W 090°01'0 0.0
2015-Jul-31 12:33N 29°57' W 090°01'0 0.0
2015-Jul-31 11:32N 29°57' W 090°01'1 0.4
2015-Jul-31 08:27N 29°56' W 089°59'0 0.0
2015-Jul-31 07:24N 29°56' W 089°59'0 0.0
2015-Jul-31 05:28N 29°56' W 089°59'0 0.0
2015-Jul-31 04:16N 29°56' W 089°59'0 0.0
2015-Jul-31 03:22N 29°56' W 089°59'0 0.0
2015-Jul-31 02:33N 29°56' W 089°59'0 0.0
2015-Jul-31 01:33N 29°56' W 089°59'0 0.0
2015-Jul-31 00:29N 29°56' W 089°59'1 1.5
2015-Jul-30 23:30N 29°57' W 090°01'0 0.0
2015-Jul-30 22:33N 29°57' W 090°01'0 0.0
2015-Jul-30 21:31N 29°57' W 090°01'0 0.0
2015-Jul-30 20:23N 29°57' W 090°01'0 0.1
2015-Jul-30 19:18N 29°57' W 090°01'0 0.0
2015-Jul-30 02:22N 29°57' W 090°01'0 0.0
2015-Jul-30 01:27N 29°57' W 090°01'0 0.1
2015-Jul-29 23:32N 29°57' W 090°01'2 0.4
2015-Jul-29 19:08N 29°56' W 089°59'0 0.2
2015-Jul-29 18:32N 29°56' W 089°59'1 0.5
2015-Jul-29 16:14N 29°57' W 089°60'1 1.0
2015-Jul-29 15:26N 29°56' W 089°59'0 0.0
2015-Jul-29 14:33N 29°56' W 089°59'0 0.0
2015-Jul-29 13:32N 29°56' W 089°59'1 0.7
2015-Jul-29 12:31N 29°57' W 089°60'1 0.3
2015-Jul-29 09:04N 29°57' W 090°01'0 0.0
2015-Jul-29 07:30N 29°57' W 090°01'1 0.9
2015-Jul-29 06:24N 29°56' W 089°60'1 0.3
2015-Jul-29 03:26N 29°57' W 090°01'0 0.0
2015-Jul-29 02:31N 29°57' W 090°01'0 0.1
2015-Jul-29 01:33N 29°57' W 090°01'0 0.0
2015-Jul-29 00:33N 29°57' W 090°01'0 0.0
2015-Jul-28 22:33N 29°57' W 090°01'0 0.0
2015-Jul-28 21:33N 29°57' W 090°01'1 1.3
2015-Jul-28 20:33N 29°56' W 089°59'0 0.3
2015-Jul-28 19:25N 29°56' W 089°59'0 0.2
2015-Jul-28 18:33N 29°56' W 089°59'1 1.3
2015-Jul-28 17:33N 29°56' W 090°01'0 0.1
2015-Jul-28 16:25N 29°56' W 090°01'0 0.5
2015-Jul-28 15:33N 29°57' W 090°01'2 1.8
2015-Jul-28 14:33N 29°56' W 089°59'1 1.2
2015-Jul-28 13:22N 29°56' W 090°01'0 0.3
2015-Jul-28 12:26N 29°57' W 090°01'0 0.1
2015-Jul-28 10:31N 29°57' W 090°01'1 1.1
2015-Jul-28 09:31N 29°56' W 089°60'0 0.4
2015-Jul-28 08:25N 29°56' W 089°59'0 0.3
2015-Jul-28 07:30N 29°56' W 089°60'2 2.5
2015-Jul-28 06:31N 29°58' W 090°02'0 0.0
2015-Jul-28 05:32N 29°58' W 090°02'1 0.6
2015-Jul-28 04:33N 29°57' W 090°02'2 2.4
2015-Jul-28 03:33N 29°56' W 089°59'2 1.7
2015-Jul-28 02:32N 29°57' W 090°01'2 1.6
2015-Jul-28 01:33N 29°56' W 089°59'0 0.3
2015-Jul-28 00:32N 29°56' W 089°59'2 1.7
2015-Jul-27 23:33N 29°57' W 090°01'0 0.4
2015-Jul-27 22:31N 29°56' W 090°00'1 0.9
2015-Jul-27 21:31N 29°56' W 089°60'0 0.3
2015-Jul-27 20:26N 29°56' W 089°59'0 0.2
2015-Jul-27 19:30N 29°56' W 089°59'5 0.3
2015-Jul-27 02:03N 29°55' W 090°05'4 1.7
2015-Jul-26 23:30N 29°57' W 090°01'0 0.1
2015-Jul-26 22:32N 29°56' W 090°01'0 0.1
2015-Jul-26 21:20N 29°56' W 090°01'0 0.0
2015-Jul-26 18:26N 29°56' W 090°01'0 0.0
2015-Jul-26 17:13N 29°56' W 090°01'0 0.0
2015-Jul-26 16:28N 29°56' W 090°01'0 0.2
2015-Jul-26 14:33N 29°56' W 090°00'0 0.5
2015-Jul-26 13:33N 29°57' W 089°60'1 1.0
2015-Jul-26 12:29N 29°57' W 090°01'1 0.1
2015-Jul-25 21:08N 29°57' W 089°60'0 0.1
2015-Jul-25 20:31N 29°57' W 089°60'1 0.4
2015-Jul-25 18:32N 29°57' W 090°01'0 0.0
2015-Jul-25 17:26N 29°57' W 090°01'0 0.1
2015-Jul-25 13:23N 29°57' W 090°01'0 0.0
2015-Jul-25 12:26N 29°57' W 090°01'  
Track history (hours):
 
Tides and Currents Weather Stations Pressure Air Temp Water Temp Dewpoint Dewpoint Depression Visibility Wind Speed Wind Dir Waves Ship Positions

Gordon V.sr.

Owner: B&G TOWING L.L.C., Lafitte, LA. More information available from US FCC via Universal Licensing System and Coast Guard Vessel Documentation Center.

Last reported at 2015-Aug-04 09:33 UTC. Time now 2015-Aug-04 09:46 UTC.
Position N 29°57' W 090°01'.

MMSI: 365910942.

Date/timePositionNaut miles runAvg speedWind from/ knotsBaromVisibWave heightAir tempDewpointWater temp
2015-Aug-04 09:33N 29°57' W 090°01'0 0.0
2015-Aug-04 08:33N 29°57' W 090°01'0 0.0
2015-Aug-04 07:33N 29°57' W 090°01'0 0.1
2015-Aug-04 06:32N 29°57' W 090°01'0 0.1
2015-Aug-04 05:32N 29°57' W 090°01'0 0.0
2015-Aug-04 04:31N 29°57' W 090°01'0 0.0
2015-Aug-04 03:32N 29°57' W 090°01'2 1.6
2015-Aug-04 02:29N 29°56' W 089°59'2 1.8
2015-Aug-04 01:33N 29°57' W 090°01'0 0.1
2015-Aug-04 00:31N 29°57' W 090°01'0 0.0
2015-Aug-03 07:31N 29°57' W 090°01'0 0.0
2015-Aug-03 06:30N 29°57' W 090°01'0 0.0
2015-Aug-03 05:23N 29°57' W 090°01'0 0.0
2015-Aug-03 04:30N 29°57' W 090°01'0 0.0
2015-Aug-03 03:27N 29°57' W 090°01'0 0.0
2015-Aug-03 02:18N 29°57' W 090°01'0 0.0
2015-Aug-03 01:32N 29°57' W 090°01'0 0.0
2015-Aug-03 00:28N 29°57' W 090°01'0 0.4
2015-Aug-02 23:32N 29°57' W 090°01'0 0.3
2015-Aug-02 22:33N 29°57' W 090°01'0 0.0
2015-Aug-02 21:33N 29°57' W 090°01'0 0.0
2015-Aug-02 20:33N 29°57' W 090°01'0 0.0
2015-Aug-02 19:33N 29°57' W 090°01'1 1.2
2015-Aug-02 18:33N 29°56' W 089°60'0 0.4
2015-Aug-02 17:33N 29°56' W 089°59'0 0.0
2015-Aug-02 16:32N 29°56' W 089°59'0 0.0
2015-Aug-02 15:33N 29°56' W 089°59'0 0.0
2015-Aug-02 14:22N 29°56' W 089°59'0 0.1
2015-Aug-02 13:07N 29°56' W 089°59'1 0.7
2015-Aug-02 11:06N 29°57' W 090°01'0 0.4
2015-Aug-02 10:27N 29°57' W 090°01'0 0.0
2015-Aug-02 09:17N 29°57' W 090°01'0 0.0
2015-Aug-02 08:33N 29°57' W 090°01'0 0.0
2015-Aug-02 07:32N 29°57' W 090°01'0 0.0
2015-Aug-02 06:33N 29°57' W 090°01'0 0.4
2015-Aug-02 05:32N 29°57' W 090°01'2 1.7
2015-Aug-02 04:30N 29°56' W 089°59'1 0.6
2015-Aug-02 03:27N 29°56' W 089°60'0 0.4
2015-Aug-02 02:33N 29°57' W 089°60'1 0.7
2015-Aug-02 01:32N 29°56' W 089°59'0 0.0
2015-Aug-02 00:33N 29°56' W 089°59'1 0.6
2015-Aug-01 23:30N 29°56' W 089°60'0 0.3
2015-Aug-01 22:31N 29°56' W 089°60'0 0.2
2015-Aug-01 21:31N 29°56' W 089°59'0 0.1
2015-Aug-01 20:32N 29°56' W 089°59'0 0.0
2015-Jul-31 21:20N 29°56' W 089°59'0 0.2
2015-Jul-31 20:30N 29°56' W 089°59'0 0.1
2015-Jul-31 19:33N 29°56' W 089°59'0 0.3
2015-Jul-31 18:14N 29°56' W 089°60'0 0.4
2015-Jul-31 17:21N 29°56' W 089°59'0 0.1
2015-Jul-31 16:28N 29°56' W 089°59'0 0.2
2015-Jul-31 15:33N 29°56' W 089°59'2 1.5
2015-Jul-31 14:33N 29°57' W 090°01'0 0.4
2015-Jul-31 13:32N 29°57' W 090°01'0 0.0
2015-Jul-31 12:33N 29°57' W 090°01'0 0.0
2015-Jul-31 11:32N 29°57' W 090°01'1 0.4
2015-Jul-31 08:27N 29°56' W 089°59'0 0.0
2015-Jul-31 07:24N 29°56' W 089°59'0 0.0
2015-Jul-31 05:28N 29°56' W 089°59'0 0.0
2015-Jul-31 04:16N 29°56' W 089°59'0 0.0
2015-Jul-31 03:22N 29°56' W 089°59'0 0.0
2015-Jul-31 02:33N 29°56' W 089°59'0 0.0
2015-Jul-31 01:33N 29°56' W 089°59'0 0.0
2015-Jul-31 00:29N 29°56' W 089°59'1 1.5
2015-Jul-30 23:30N 29°57' W 090°01'0 0.0
2015-Jul-30 22:33N 29°57' W 090°01'0 0.0
2015-Jul-30 21:31N 29°57' W 090°01'0 0.0
2015-Jul-30 20:23N 29°57' W 090°01'0 0.1
2015-Jul-30 19:18N 29°57' W 090°01'0 0.0
2015-Jul-30 02:22N 29°57' W 090°01'0 0.0
2015-Jul-30 01:27N 29°57' W 090°01'0 0.1
2015-Jul-29 23:32N 29°57' W 090°01'2 0.4
2015-Jul-29 19:08N 29°56' W 089°59'0 0.2
2015-Jul-29 18:32N 29°56' W 089°59'1 0.5
2015-Jul-29 16:14N 29°57' W 089°60'1 1.0
2015-Jul-29 15:26N 29°56' W 089°59'0 0.0
2015-Jul-29 14:33N 29°56' W 089°59'0 0.0
2015-Jul-29 13:32N 29°56' W 089°59'1 0.7
2015-Jul-29 12:31N 29°57' W 089°60'1 0.3
2015-Jul-29 09:04N 29°57' W 090°01'0 0.0
2015-Jul-29 07:30N 29°57' W 090°01'1 0.9
2015-Jul-29 06:24N 29°56' W 089°60'1 0.3
2015-Jul-29 03:26N 29°57' W 090°01'0 0.0
2015-Jul-29 02:31N 29°57' W 090°01'0 0.1
2015-Jul-29 01:33N 29°57' W 090°01'0 0.0
2015-Jul-29 00:33N 29°57' W 090°01'0 0.0
2015-Jul-28 22:33N 29°57' W 090°01'0 0.0
2015-Jul-28 21:33N 29°57' W 090°01'1 1.3
2015-Jul-28 20:33N 29°56' W 089°59'0 0.3
2015-Jul-28 19:25N 29°56' W 089°59'0 0.2
2015-Jul-28 18:33N 29°56' W 089°59'1 1.3
2015-Jul-28 17:33N 29°56' W 090°01'0 0.1
2015-Jul-28 16:25N 29°56' W 090°01'0 0.5
2015-Jul-28 15:33N 29°57' W 090°01'2 1.8
2015-Jul-28 14:33N 29°56' W 089°59'1 1.2
2015-Jul-28 13:22N 29°56' W 090°01'0 0.3
2015-Jul-28 12:26N 29°57' W 090°01'0 0.1
2015-Jul-28 10:31N 29°57' W 090°01'1 1.1
2015-Jul-28 09:31N 29°56' W 089°60'0 0.4
2015-Jul-28 08:25N 29°56' W 089°59'0 0.3
2015-Jul-28 07:30N 29°56' W 089°60'2 2.5
2015-Jul-28 06:31N 29°58' W 090°02'0 0.0
2015-Jul-28 05:32N 29°58' W 090°02'1 0.6
2015-Jul-28 04:33N 29°57' W 090°02'2 2.4
2015-Jul-28 03:33N 29°56' W 089°59'2 1.7
2015-Jul-28 02:32N 29°57' W 090°01'2 1.6
2015-Jul-28 01:33N 29°56' W 089°59'0 0.3
2015-Jul-28 00:32N 29°56' W 089°59'2 1.7
2015-Jul-27 23:33N 29°57' W 090°01'0 0.4
2015-Jul-27 22:31N 29°56' W 090°00'1 0.9
2015-Jul-27 21:31N 29°56' W 089°60'0 0.3
2015-Jul-27 20:26N 29°56' W 089°59'0 0.2
2015-Jul-27 19:30N 29°56' W 089°59'5 0.3
2015-Jul-27 02:03N 29°55' W 090°05'4 1.7
2015-Jul-26 23:30N 29°57' W 090°01'0 0.1
2015-Jul-26 22:32N 29°56' W 090°01'0 0.1
2015-Jul-26 21:20N 29°56' W 090°01'0 0.0
2015-Jul-26 18:26N 29°56' W 090°01'0 0.0
2015-Jul-26 17:13N 29°56' W 090°01'0 0.0
2015-Jul-26 16:28N 29°56' W 090°01'0 0.2
2015-Jul-26 14:33N 29°56' W 090°00'0 0.5
2015-Jul-26 13:33N 29°57' W 089°60'1 1.0
2015-Jul-26 12:29N 29°57' W 090°01'1 0.1
2015-Jul-25 21:08N 29°57' W 089°60'0 0.1
2015-Jul-25 20:31N 29°57' W 089°60'1 0.4
2015-Jul-25 18:32N 29°57' W 090°01'0 0.0
2015-Jul-25 17:26N 29°57' W 090°01'0 0.1
2015-Jul-25 13:23N 29°57' W 090°01'0 0.0
2015-Jul-25 12:26N 29°57' W 090°01'  

Dump ship's entire track history